Messwerte Sao Paulo

Temperatur

Temperatur
°C
1594306800 12.00 12.00 22
1594310400 13.00 13.00 24
1594314000 14.00 14.00 24
1594317600 15.00 15.00 24
1594321200 16.00 16.00 21
1594324800 17.00 17.00 20
1594328400 18.00 18.00 18
1594332000 19.00 19.00 18
1594335600 20.00 20.00 15
1594339200 21.00 21.00 14
1594342800 22.00 22.00
1594346400 23.00 23.00 14
1594350000 0.00 0.00
1594353600 1.00 1.00
1594357200 2.00 2.00
1594360800 3.00 3.00
1594364400 4.00 4.00
1594368000 5.00 5.00
1594371600 6.00 6.00 11
1594375200 7.00 7.00 11
1594378800 8.00 8.00 12
1594382400 9.00 9.00 13
1594386000 10.00 10.00 16
1594389600 11.00 11.00 18

Aktuellste Messwerte

Wettercharakter
Wetter: recht sonnig
Temperatur
18 °C
Feuchtigkeit
70 %
Wind
20 km/hWindrichtung: Ost
Luftdruck
1024 hPa
Messzeit: 10. Juli 2020, 11.00Datenquelle: METAR

Weitere Messstationen in der Nähe

Messstation Temperatur Entfernung
São Paulo 20 °C 13 km
Guarulhos 19 °C 18 km
Campinas 25 °C 75 km
São José dos Campos 20 °C 87 km
Pirassununga - 184 km
Bauru - 279 km
Santa Cruz - 311 km

Wind

Windrichtung Böen Mittelwind
° km/h km/h
1594306800 12.00 11.00 - 12.00 250° 15
1594310400 13.00 12.00 - 13.00 270° 10
1594314000 14.00 13.00 - 14.00 250° 10
1594317600 15.00 14.00 - 15.00 5
1594321200 16.00 15.00 - 16.00 140° 20
1594324800 17.00 16.00 - 17.00 130° 10
1594328400 18.00 17.00 - 18.00 130° 5
1594332000 19.00 18.00 - 19.00 130° 10
1594335600 20.00 19.00 - 20.00 130° 10
1594339200 21.00 20.00 - 21.00 120° 5
1594342800 22.00 21.00 - 22.00
1594346400 23.00 22.00 - 23.00 90° 5
1594350000 0.00 23.00 - 0.00
1594353600 1.00 0.00 - 1.00
1594357200 2.00 1.00 - 2.00
1594360800 3.00 2.00 - 3.00
1594364400 4.00 3.00 - 4.00
1594368000 5.00 4.00 - 5.00
1594371600 6.00 5.00 - 6.00 90° 10
1594375200 7.00 6.00 - 7.00 80° 5
1594378800 8.00 7.00 - 8.00 90° 10
1594382400 9.00 8.00 - 9.00 110° 15
1594386000 10.00 9.00 - 10.00 100° 20
1594389600 11.00 10.00 - 11.00 100° 20

Ihre Wetterstation

Fehlt Ihre Wetterstation auf unserem Portal?

Schreiben Sie an network@meteonews.ch

Klima

Wann ist es am wärmsten? Wann regnet es am wenigsten? Unsere Klimadaten geben Auskunft.